sensor_id;sensor_type;location;lat;lon;timestamp;pressure;altitude;pressure_sealevel;temperature
53667;BMP280;39568;51.026;5.468;2022-10-17T00:00:13;100783.97;;;14.05
53667;BMP280;39568;51.026;5.468;2022-10-17T00:02:43;100781.81;;;14.03
53667;BMP280;39568;51.026;5.468;2022-10-17T00:05:10;100782.53;;;14.04
53667;BMP280;39568;51.026;5.468;2022-10-17T00:07:38;100780.50;;;14.10
53667;BMP280;39568;51.026;5.468;2022-10-17T00:10:06;100770.19;;;14.20
53667;BMP280;39568;51.026;5.468;2022-10-17T00:12:33;100771.09;;;14.22
53667;BMP280;39568;51.026;5.468;2022-10-17T00:15:01;100766.16;;;14.26
53667;BMP280;39568;51.026;5.468;2022-10-17T00:17:28;100769.72;;;14.34
53667;BMP280;39568;51.026;5.468;2022-10-17T00:19:59;100763.34;;;14.37
53667;BMP280;39568;51.026;5.468;2022-10-17T00:22:29;100766.03;;;14.37
53667;BMP280;39568;51.026;5.468;2022-10-17T00:24:56;100759.63;;;14.40
53667;BMP280;39568;51.026;5.468;2022-10-17T00:27:23;100760.88;;;14.39
53667;BMP280;39568;51.026;5.468;2022-10-17T00:29:50;100762.72;;;14.44
53667;BMP280;39568;51.026;5.468;2022-10-17T00:32:18;100761.44;;;14.51
53667;BMP280;39568;51.026;5.468;2022-10-17T00:34:45;100764.44;;;14.60
53667;BMP280;39568;51.026;5.468;2022-10-17T00:37:15;100766.53;;;14.67
53667;BMP280;39568;51.026;5.468;2022-10-17T00:39:42;100762.84;;;14.70
53667;BMP280;39568;51.026;5.468;2022-10-17T00:42:11;100765.19;;;14.74
53667;BMP280;39568;51.026;5.468;2022-10-17T00:44:59;100777.50;;;14.83
53667;BMP280;39568;51.026;5.468;2022-10-17T00:47:28;100770.47;;;14.93
53667;BMP280;39568;51.026;5.468;2022-10-17T00:49:54;100775.22;;;15.00
53667;BMP280;39568;51.026;5.468;2022-10-17T00:52:24;100778.56;;;15.06
53667;BMP280;39568;51.026;5.468;2022-10-17T00:54:55;100773.94;;;15.06
53667;BMP280;39568;51.026;5.468;2022-10-17T00:57:24;100774.09;;;15.08
53667;BMP280;39568;51.026;5.468;2022-10-17T00:59:54;100780.19;;;15.09
53667;BMP280;39568;51.026;5.468;2022-10-17T01:02:23;100772.34;;;15.11
53667;BMP280;39568;51.026;5.468;2022-10-17T01:04:51;100788.75;;;15.20
53667;BMP280;39568;51.026;5.468;2022-10-17T01:07:20;100769.50;;;15.22
53667;BMP280;39568;51.026;5.468;2022-10-17T01:09:47;100772.97;;;15.30
53667;BMP280;39568;51.026;5.468;2022-10-17T01:12:19;100774.31;;;15.36
53667;BMP280;39568;51.026;5.468;2022-10-17T01:14:57;100772.06;;;15.40
53667;BMP280;39568;51.026;5.468;2022-10-17T01:17:38;100772.34;;;15.50
53667;BMP280;39568;51.026;5.468;2022-10-17T01:20:28;100768.50;;;15.59
53667;BMP280;39568;51.026;5.468;2022-10-17T01:23:15;100774.59;;;15.59
53667;BMP280;39568;51.026;5.468;2022-10-17T01:25:51;100765.66;;;15.57
53667;BMP280;39568;51.026;5.468;2022-10-17T01:28:34;100766.78;;;15.61
53667;BMP280;39568;51.026;5.468;2022-10-17T01:31:07;100772.31;;;15.63
53667;BMP280;39568;51.026;5.468;2022-10-17T01:33:57;100763.78;;;15.65
53667;BMP280;39568;51.026;5.468;2022-10-17T01:36:35;100768.50;;;15.72
53667;BMP280;39568;51.026;5.468;2022-10-17T01:39:10;100761.56;;;15.76
53667;BMP280;39568;51.026;5.468;2022-10-17T01:41:43;100760.72;;;15.81
53667;BMP280;39568;51.026;5.468;2022-10-17T01:44:15;100767.09;;;15.91
53667;BMP280;39568;51.026;5.468;2022-10-17T01:46:55;100769.34;;;16.00
53667;BMP280;39568;51.026;5.468;2022-10-17T01:49:25;100768.31;;;16.03
53667;BMP280;39568;51.026;5.468;2022-10-17T01:51:58;100759.00;;;16.04
53667;BMP280;39568;51.026;5.468;2022-10-17T01:54:31;100762.06;;;16.08
53667;BMP280;39568;51.026;5.468;2022-10-17T01:57:01;100755.75;;;16.19
53667;BMP280;39568;51.026;5.468;2022-10-17T01:59:35;100753.69;;;16.33
53667;BMP280;39568;51.026;5.468;2022-10-17T02:02:04;100752.97;;;16.32
53667;BMP280;39568;51.026;5.468;2022-10-17T02:04:33;100750.50;;;16.34
53667;BMP280;39568;51.026;5.468;2022-10-17T02:07:05;100751.63;;;16.39
53667;BMP280;39568;51.026;5.468;2022-10-17T02:09:32;100755.53;;;16.38
53667;BMP280;39568;51.026;5.468;2022-10-17T02:12:29;100757.22;;;16.48
53667;BMP280;39568;51.026;5.468;2022-10-17T02:15:09;100758.38;;;16.53
53667;BMP280;39568;51.026;5.468;2022-10-17T02:17:44;100755.06;;;16.67
53667;BMP280;39568;51.026;5.468;2022-10-17T02:20:20;100751.97;;;16.63
53667;BMP280;39568;51.026;5.468;2022-10-17T02:22:54;100746.47;;;16.69
53667;BMP280;39568;51.026;5.468;2022-10-17T02:25:28;100752.75;;;16.71
53667;BMP280;39568;51.026;5.468;2022-10-17T02:28:03;100752.03;;;16.71
53667;BMP280;39568;51.026;5.468;2022-10-17T02:30:45;100756.47;;;16.68
53667;BMP280;39568;51.026;5.468;2022-10-17T02:33:20;100750.25;;;16.73
53667;BMP280;39568;51.026;5.468;2022-10-17T02:35:51;100751.66;;;16.67
53667;BMP280;39568;51.026;5.468;2022-10-17T02:38:22;100761.84;;;16.68
53667;BMP280;39568;51.026;5.468;2022-10-17T02:40:56;100757.75;;;16.67
53667;BMP280;39568;51.026;5.468;2022-10-17T02:43:23;100755.59;;;16.66
53667;BMP280;39568;51.026;5.468;2022-10-17T02:45:52;100747.72;;;16.68
53667;BMP280;39568;51.026;5.468;2022-10-17T02:48:25;100757.13;;;16.82
53667;BMP280;39568;51.026;5.468;2022-10-17T02:51:00;100749.94;;;16.77
53667;BMP280;39568;51.026;5.468;2022-10-17T02:53:35;100757.41;;;16.71
53667;BMP280;39568;51.026;5.468;2022-10-17T02:56:09;100755.47;;;16.79
53667;BMP280;39568;51.026;5.468;2022-10-17T02:58:41;100777.28;;;16.96
53667;BMP280;39568;51.026;5.468;2022-10-17T03:01:09;100773.72;;;17.01
53667;BMP280;39568;51.026;5.468;2022-10-17T03:03:42;100773.56;;;17.07
53667;BMP280;39568;51.026;5.468;2022-10-17T03:06:12;100781.25;;;17.03
53667;BMP280;39568;51.026;5.468;2022-10-17T03:08:39;100777.53;;;17.06
53667;BMP280;39568;51.026;5.468;2022-10-17T03:11:05;100769.78;;;17.02
53667;BMP280;39568;51.026;5.468;2022-10-17T03:13:32;100768.72;;;17.05
53667;BMP280;39568;51.026;5.468;2022-10-17T03:15:59;100779.66;;;17.07
53667;BMP280;39568;51.026;5.468;2022-10-17T03:18:26;100778.75;;;17.05
53667;BMP280;39568;51.026;5.468;2022-10-17T03:20:54;100788.41;;;17.00
53667;BMP280;39568;51.026;5.468;2022-10-17T03:23:24;100775.16;;;17.02
53667;BMP280;39568;51.026;5.468;2022-10-17T03:25:50;100768.69;;;16.98
53667;BMP280;39568;51.026;5.468;2022-10-17T03:28:23;100772.78;;;16.98
53667;BMP280;39568;51.026;5.468;2022-10-17T03:30:50;100770.81;;;16.91
53667;BMP280;39568;51.026;5.468;2022-10-17T03:33:17;100782.63;;;16.88
53667;BMP280;39568;51.026;5.468;2022-10-17T03:35:45;100767.19;;;16.89
53667;BMP280;39568;51.026;5.468;2022-10-17T03:38:15;100770.75;;;16.84
53667;BMP280;39568;51.026;5.468;2022-10-17T03:40:54;100776.13;;;16.84
53667;BMP280;39568;51.026;5.468;2022-10-17T03:43:20;100773.25;;;16.82
53667;BMP280;39568;51.026;5.468;2022-10-17T03:45:51;100784.59;;;16.88
53667;BMP280;39568;51.026;5.468;2022-10-17T03:48:18;100794.06;;;16.89
53667;BMP280;39568;51.026;5.468;2022-10-17T03:50:45;100810.38;;;16.91
53667;BMP280;39568;51.026;5.468;2022-10-17T03:53:11;100821.53;;;16.95
53667;BMP280;39568;51.026;5.468;2022-10-17T03:55:39;100814.63;;;17.07
53667;BMP280;39568;51.026;5.468;2022-10-17T03:58:07;100808.56;;;17.14
53667;BMP280;39568;51.026;5.468;2022-10-17T04:00:34;100817.34;;;17.15
53667;BMP280;39568;51.026;5.468;2022-10-17T04:03:01;100808.28;;;17.25
53667;BMP280;39568;51.026;5.468;2022-10-17T04:05:27;100809.41;;;17.37
53667;BMP280;39568;51.026;5.468;2022-10-17T04:07:55;100812.63;;;17.36
53667;BMP280;39568;51.026;5.468;2022-10-17T04:10:21;100818.22;;;17.45
53667;BMP280;39568;51.026;5.468;2022-10-17T04:12:50;100820.25;;;17.52
53667;BMP280;39568;51.026;5.468;2022-10-17T04:15:22;100827.75;;;17.54
53667;BMP280;39568;51.026;5.468;2022-10-17T04:17:59;100830.28;;;17.52
53667;BMP280;39568;51.026;5.468;2022-10-17T04:20:26;100829.19;;;17.47
53667;BMP280;39568;51.026;5.468;2022-10-17T04:22:53;100814.28;;;17.46
53667;BMP280;39568;51.026;5.468;2022-10-17T04:25:22;100817.34;;;17.50
53667;BMP280;39568;51.026;5.468;2022-10-17T04:27:51;100818.75;;;17.44
53667;BMP280;39568;51.026;5.468;2022-10-17T04:30:18;100818.59;;;17.49
53667;BMP280;39568;51.026;5.468;2022-10-17T04:32:44;100820.56;;;17.49
53667;BMP280;39568;51.026;5.468;2022-10-17T04:35:11;100809.13;;;17.56
53667;BMP280;39568;51.026;5.468;2022-10-17T04:37:37;100825.56;;;17.45
53667;BMP280;39568;51.026;5.468;2022-10-17T04:40:05;100818.56;;;17.42
53667;BMP280;39568;51.026;5.468;2022-10-17T04:42:32;100827.38;;;17.50
53667;BMP280;39568;51.026;5.468;2022-10-17T04:45:00;100826.09;;;17.43
53667;BMP280;39568;51.026;5.468;2022-10-17T04:47:26;100827.75;;;17.54
53667;BMP280;39568;51.026;5.468;2022-10-17T04:49:56;100827.56;;;17.44
53667;BMP280;39568;51.026;5.468;2022-10-17T04:52:26;100825.72;;;17.39
53667;BMP280;39568;51.026;5.468;2022-10-17T04:54:52;100828.41;;;17.39
53667;BMP280;39568;51.026;5.468;2022-10-17T04:57:19;100837.19;;;17.32
53667;BMP280;39568;51.026;5.468;2022-10-17T04:59:46;100837.69;;;17.31
53667;BMP280;39568;51.026;5.468;2022-10-17T05:02:16;100837.03;;;17.38
53667;BMP280;39568;51.026;5.468;2022-10-17T05:04:44;100844.94;;;17.43
53667;BMP280;39568;51.026;5.468;2022-10-17T05:07:11;100851.03;;;17.44
53667;BMP280;39568;51.026;5.468;2022-10-17T05:09:39;100834.56;;;17.47
53667;BMP280;39568;51.026;5.468;2022-10-17T05:12:05;100836.69;;;17.41
53667;BMP280;39568;51.026;5.468;2022-10-17T05:14:32;100844.06;;;17.48
53667;BMP280;39568;51.026;5.468;2022-10-17T05:16:59;100839.00;;;17.45
53667;BMP280;39568;51.026;5.468;2022-10-17T05:19:28;100836.84;;;17.43
53667;BMP280;39568;51.026;5.468;2022-10-17T05:21:54;100839.56;;;17.43
53667;BMP280;39568;51.026;5.468;2022-10-17T05:24:21;100836.69;;;17.41
53667;BMP280;39568;51.026;5.468;2022-10-17T05:26:48;100834.00;;;17.41
53667;BMP280;39568;51.026;5.468;2022-10-17T05:29:16;100828.09;;;17.43
53667;BMP280;39568;51.026;5.468;2022-10-17T05:31:45;100829.72;;;17.46
53667;BMP280;39568;51.026;5.468;2022-10-17T05:34:23;100841.22;;;17.54
53667;BMP280;39568;51.026;5.468;2022-10-17T05:36:57;100847.84;;;17.53
53667;BMP280;39568;51.026;5.468;2022-10-17T05:39:24;100846.09;;;17.55
53667;BMP280;39568;51.026;5.468;2022-10-17T05:41:51;100838.53;;;17.54
53667;BMP280;39568;51.026;5.468;2022-10-17T05:44:18;100849.84;;;17.52
53667;BMP280;39568;51.026;5.468;2022-10-17T05:46:48;100858.47;;;17.58
53667;BMP280;39568;51.026;5.468;2022-10-17T05:49:15;100848.59;;;17.61
53667;BMP280;39568;51.026;5.468;2022-10-17T05:51:42;100858.13;;;17.62
53667;BMP280;39568;51.026;5.468;2022-10-17T05:54:10;100860.63;;;17.60
53667;BMP280;39568;51.026;5.468;2022-10-17T05:56:36;100851.28;;;17.61
53667;BMP280;39568;51.026;5.468;2022-10-17T05:59:03;100866.03;;;17.67
53667;BMP280;39568;51.026;5.468;2022-10-17T06:01:30;100859.59;;;17.70
53667;BMP280;39568;51.026;5.468;2022-10-17T06:03:57;100874.50;;;17.72
53667;BMP280;39568;51.026;5.468;2022-10-17T06:06:27;100875.38;;;17.66
53667;BMP280;39568;51.026;5.468;2022-10-17T06:08:53;100867.31;;;17.66
53667;BMP280;39568;51.026;5.468;2022-10-17T06:11:25;100862.81;;;17.69
53667;BMP280;39568;51.026;5.468;2022-10-17T06:13:52;100874.53;;;17.79
53667;BMP280;39568;51.026;5.468;2022-10-17T06:16:18;100878.81;;;17.75
53667;BMP280;39568;51.026;5.468;2022-10-17T06:18:45;100873.94;;;17.73
53667;BMP280;39568;51.026;5.468;2022-10-17T06:21:15;100876.69;;;17.81
53667;BMP280;39568;51.026;5.468;2022-10-17T06:23:43;100874.16;;;17.75
53667;BMP280;39568;51.026;5.468;2022-10-17T06:26:09;100889.72;;;17.69
53667;BMP280;39568;51.026;5.468;2022-10-17T06:28:37;100883.22;;;17.64
53667;BMP280;39568;51.026;5.468;2022-10-17T06:31:05;100887.38;;;17.65
53667;BMP280;39568;51.026;5.468;2022-10-17T06:33:32;100889.69;;;17.61
53667;BMP280;39568;51.026;5.468;2022-10-17T06:35:59;100897.06;;;17.68
53667;BMP280;39568;51.026;5.468;2022-10-17T06:38:30;100893.38;;;17.79
53667;BMP280;39568;51.026;5.468;2022-10-17T06:41:04;100891.97;;;17.86
53667;BMP280;39568;51.026;5.468;2022-10-17T06:43:32;100889.63;;;17.90
53667;BMP280;39568;51.026;5.468;2022-10-17T06:46:00;100881.03;;;17.91
53667;BMP280;39568;51.026;5.468;2022-10-17T06:48:27;100883.38;;;17.95
53667;BMP280;39568;51.026;5.468;2022-10-17T06:50:57;100876.34;;;17.92
53667;BMP280;39568;51.026;5.468;2022-10-17T06:53:30;100874.94;;;17.91
53667;BMP280;39568;51.026;5.468;2022-10-17T06:56:00;100880.31;;;17.91
53667;BMP280;39568;51.026;5.468;2022-10-17T06:58:31;100893.06;;;17.90
53667;BMP280;39568;51.026;5.468;2022-10-17T07:00:58;100922.31;;;17.94
53667;BMP280;39568;51.026;5.468;2022-10-17T07:03:27;100917.13;;;17.96
53667;BMP280;39568;51.026;5.468;2022-10-17T07:05:57;100919.84;;;18.03
53667;BMP280;39568;51.026;5.468;2022-10-17T07:08:24;100915.53;;;18.08
53667;BMP280;39568;51.026;5.468;2022-10-17T07:10:53;100918.63;;;18.19
53667;BMP280;39568;51.026;5.468;2022-10-17T07:13:21;100917.41;;;18.28
53667;BMP280;39568;51.026;5.468;2022-10-17T07:15:48;100942.00;;;18.32
53667;BMP280;39568;51.026;5.468;2022-10-17T07:18:21;100949.00;;;18.35
53667;BMP280;39568;51.026;5.468;2022-10-17T07:20:53;100945.44;;;18.47
53667;BMP280;39568;51.026;5.468;2022-10-17T07:23:19;100939.34;;;18.55
53667;BMP280;39568;51.026;5.468;2022-10-17T07:25:58;100953.41;;;18.68
53667;BMP280;39568;51.026;5.468;2022-10-17T07:28:25;100965.63;;;18.77
53667;BMP280;39568;51.026;5.468;2022-10-17T07:30:52;100952.66;;;18.75
53667;BMP280;39568;51.026;5.468;2022-10-17T07:33:18;100957.34;;;18.82
53667;BMP280;39568;51.026;5.468;2022-10-17T07:35:46;100954.16;;;18.84
53667;BMP280;39568;51.026;5.468;2022-10-17T07:38:18;100963.66;;;18.92
53667;BMP280;39568;51.026;5.468;2022-10-17T07:40:53;100977.88;;;18.85
53667;BMP280;39568;51.026;5.468;2022-10-17T07:43:20;100985.41;;;18.87
53667;BMP280;39568;51.026;5.468;2022-10-17T07:45:47;100989.53;;;18.95
53667;BMP280;39568;51.026;5.468;2022-10-17T07:48:16;100990.44;;;18.98
53667;BMP280;39568;51.026;5.468;2022-10-17T07:50:43;101014.91;;;19.07
53667;BMP280;39568;51.026;5.468;2022-10-17T07:53:10;101009.50;;;19.22
53667;BMP280;39568;51.026;5.468;2022-10-17T07:55:38;101010.59;;;19.19
53667;BMP280;39568;51.026;5.468;2022-10-17T07:58:05;101016.00;;;19.19
53667;BMP280;39568;51.026;5.468;2022-10-17T08:00:32;101026.78;;;19.04
53667;BMP280;39568;51.026;5.468;2022-10-17T08:02:59;101010.41;;;19.10
53667;BMP280;39568;51.026;5.468;2022-10-17T08:05:26;101024.09;;;19.27
53667;BMP280;39568;51.026;5.468;2022-10-17T08:07:53;101042.03;;;19.24
53667;BMP280;39568;51.026;5.468;2022-10-17T08:10:20;101045.47;;;19.10
53667;BMP280;39568;51.026;5.468;2022-10-17T08:12:53;101045.81;;;19.21
53667;BMP280;39568;51.026;5.468;2022-10-17T08:15:20;101066.50;;;19.11
53667;BMP280;39568;51.026;5.468;2022-10-17T08:17:49;101059.16;;;19.04
53667;BMP280;39568;51.026;5.468;2022-10-17T08:20:18;101069.34;;;18.83
53667;BMP280;39568;51.026;5.468;2022-10-17T08:22:51;101062.13;;;18.86
53667;BMP280;39568;51.026;5.468;2022-10-17T08:25:17;101068.47;;;19.03
53667;BMP280;39568;51.026;5.468;2022-10-17T08:27:44;101085.75;;;19.08
53667;BMP280;39568;51.026;5.468;2022-10-17T08:30:12;101086.81;;;18.97
53667;BMP280;39568;51.026;5.468;2022-10-17T08:32:39;101080.34;;;19.00
53667;BMP280;39568;51.026;5.468;2022-10-17T08:35:07;101083.59;;;19.14
53667;BMP280;39568;51.026;5.468;2022-10-17T08:37:37;101089.00;;;19.21
53667;BMP280;39568;51.026;5.468;2022-10-17T08:40:06;101078.56;;;19.41
53667;BMP280;39568;51.026;5.468;2022-10-17T08:45:42;101091.72;;;19.59
53667;BMP280;39568;51.026;5.468;2022-10-17T08:48:13;101087.22;;;19.54
53667;BMP280;39568;51.026;5.468;2022-10-17T08:50:44;101091.19;;;19.46
53667;BMP280;39568;51.026;5.468;2022-10-17T08:53:16;101091.88;;;19.39
53667;BMP280;39568;51.026;5.468;2022-10-17T08:55:46;101111.50;;;19.24
53667;BMP280;39568;51.026;5.468;2022-10-17T08:58:16;101123.34;;;19.13
53667;BMP280;39568;51.026;5.468;2022-10-17T09:00:50;101125.50;;;19.15
53667;BMP280;39568;51.026;5.468;2022-10-17T09:03:31;101126.34;;;19.02
53667;BMP280;39568;51.026;5.468;2022-10-17T09:06:14;101136.59;;;18.89
53667;BMP280;39568;51.026;5.468;2022-10-17T09:08:50;101135.66;;;18.86
53667;BMP280;39568;51.026;5.468;2022-10-17T09:11:42;101121.69;;;18.95
53667;BMP280;39568;51.026;5.468;2022-10-17T09:14:26;101122.94;;;18.94
53667;BMP280;39568;51.026;5.468;2022-10-17T09:17:09;101118.47;;;19.12
53667;BMP280;39568;51.026;5.468;2022-10-17T09:19:41;101108.59;;;19.14
53667;BMP280;39568;51.026;5.468;2022-10-17T09:22:12;101117.56;;;19.24
53667;BMP280;39568;51.026;5.468;2022-10-17T09:24:43;101107.53;;;19.33
53667;BMP280;39568;51.026;5.468;2022-10-17T09:27:21;101108.44;;;19.43
53667;BMP280;39568;51.026;5.468;2022-10-17T09:29:49;101101.59;;;19.57
53667;BMP280;39568;51.026;5.468;2022-10-17T09:32:20;101111.50;;;19.24
53667;BMP280;39568;51.026;5.468;2022-10-17T09:34:55;101114.56;;;19.28
53667;BMP280;39568;51.026;5.468;2022-10-17T09:37:29;101116.19;;;19.23
53667;BMP280;39568;51.026;5.468;2022-10-17T09:39:56;101116.34;;;19.10
53667;BMP280;39568;51.026;5.468;2022-10-17T09:42:25;101129.91;;;18.82
53667;BMP280;39568;51.026;5.468;2022-10-17T09:44:56;101111.19;;;18.69
53667;BMP280;39568;51.026;5.468;2022-10-17T09:47:33;101070.88;;;18.56
53667;BMP280;39568;51.026;5.468;2022-10-17T09:50:06;101101.53;;;18.38
53667;BMP280;39568;51.026;5.468;2022-10-17T09:52:39;101099.78;;;18.20
53667;BMP280;39568;51.026;5.468;2022-10-17T09:55:16;101114.44;;;18.04
53667;BMP280;39568;51.026;5.468;2022-10-17T09:57:55;101107.84;;;17.92
53667;BMP280;39568;51.026;5.468;2022-10-17T10:00:31;101134.66;;;17.97
53667;BMP280;39568;51.026;5.468;2022-10-17T10:03:14;101139.69;;;18.01
53667;BMP280;39568;51.026;5.468;2022-10-17T10:06:00;101130.50;;;17.96
53667;BMP280;39568;51.026;5.468;2022-10-17T10:08:30;101130.38;;;18.02
53667;BMP280;39568;51.026;5.468;2022-10-17T10:11:01;101124.53;;;18.11
53667;BMP280;39568;51.026;5.468;2022-10-17T10:13:30;101138.47;;;18.02
53667;BMP280;39568;51.026;5.468;2022-10-17T10:16:21;101138.81;;;17.98
53667;BMP280;39568;51.026;5.468;2022-10-17T10:18:52;101117.84;;;18.04
53667;BMP280;39568;51.026;5.468;2022-10-17T10:21:20;101117.25;;;18.19
53667;BMP280;39568;51.026;5.468;2022-10-17T10:24:10;101130.00;;;18.26
53667;BMP280;39568;51.026;5.468;2022-10-17T10:26:39;101125.19;;;18.04
53667;BMP280;39568;51.026;5.468;2022-10-17T10:29:19;101151.19;;;18.01
53667;BMP280;39568;51.026;5.468;2022-10-17T10:31:48;101154.81;;;18.04
53667;BMP280;39568;51.026;5.468;2022-10-17T10:34:22;101158.22;;;18.04
53667;BMP280;39568;51.026;5.468;2022-10-17T10:36:57;101165.97;;;18.08
53667;BMP280;39568;51.026;5.468;2022-10-17T10:39:37;101160.81;;;18.10
53667;BMP280;39568;51.026;5.468;2022-10-17T10:42:15;101173.16;;;18.05
53667;BMP280;39568;51.026;5.468;2022-10-17T10:44:43;101186.28;;;18.09
53667;BMP280;39568;51.026;5.468;2022-10-17T10:47:18;101180.03;;;18.14
53667;BMP280;39568;51.026;5.468;2022-10-17T10:49:52;101180.22;;;18.16
53667;BMP280;39568;51.026;5.468;2022-10-17T10:52:31;101184.22;;;18.22
53667;BMP280;39568;51.026;5.468;2022-10-17T10:55:05;101178.56;;;18.33
53667;BMP280;39568;51.026;5.468;2022-10-17T10:57:40;101182.16;;;18.36
53667;BMP280;39568;51.026;5.468;2022-10-17T11:00:14;101193.03;;;18.51
53667;BMP280;39568;51.026;5.468;2022-10-17T11:02:48;101196.09;;;18.55
53667;BMP280;39568;51.026;5.468;2022-10-17T11:05:23;101195.03;;;18.58
53667;BMP280;39568;51.026;5.468;2022-10-17T11:07:53;101195.25;;;18.60
53667;BMP280;39568;51.026;5.468;2022-10-17T11:10:25;101200.66;;;18.68
53667;BMP280;39568;51.026;5.468;2022-10-17T11:13:02;101206.78;;;18.68
53667;BMP280;39568;51.026;5.468;2022-10-17T11:15:34;101213.75;;;18.64
53667;BMP280;39568;51.026;5.468;2022-10-17T11:18:03;101222.44;;;18.70
53667;BMP280;39568;51.026;5.468;2022-10-17T11:20:47;101225.88;;;18.78
53667;BMP280;39568;51.026;5.468;2022-10-17T11:23:19;101226.41;;;18.76
53667;BMP280;39568;51.026;5.468;2022-10-17T11:25:50;101229.84;;;18.84
53667;BMP280;39568;51.026;5.468;2022-10-17T11:28:18;101230.25;;;18.88
53667;BMP280;39568;51.026;5.468;2022-10-17T11:30:49;101227.75;;;18.98
53667;BMP280;39568;51.026;5.468;2022-10-17T11:33:17;101222.53;;;18.92
53667;BMP280;39568;51.026;5.468;2022-10-17T11:35:49;101216.94;;;18.90
53667;BMP280;39568;51.026;5.468;2022-10-17T11:38:21;101230.63;;;18.92
53667;BMP280;39568;51.026;5.468;2022-10-17T11:40:53;101224.16;;;18.95
53667;BMP280;39568;51.026;5.468;2022-10-17T11:43:26;101242.91;;;19.08
53667;BMP280;39568;51.026;5.468;2022-10-17T11:45:58;101251.94;;;19.11
53667;BMP280;39568;51.026;5.468;2022-10-17T11:48:29;101243.66;;;19.16
53667;BMP280;39568;51.026;5.468;2022-10-17T11:51:03;101253.41;;;19.19
53667;BMP280;39568;51.026;5.468;2022-10-17T11:53:37;101241.88;;;19.19
53667;BMP280;39568;51.026;5.468;2022-10-17T11:56:09;101251.81;;;19.32
53667;BMP280;39568;51.026;5.468;2022-10-17T11:58:40;101253.06;;;19.30
53667;BMP280;39568;51.026;5.468;2022-10-17T12:01:19;101266.75;;;19.33
53667;BMP280;39568;51.026;5.468;2022-10-17T12:04:03;101271.38;;;19.24
53667;BMP280;39568;51.026;5.468;2022-10-17T12:06:55;101272.13;;;19.33
53667;BMP280;39568;51.026;5.468;2022-10-17T12:09:31;101270.75;;;19.47
53667;BMP280;39568;51.026;5.468;2022-10-17T12:12:02;101288.69;;;19.37
53667;BMP280;39568;51.026;5.468;2022-10-17T12:14:38;101285.66;;;19.40
53667;BMP280;39568;51.026;5.468;2022-10-17T12:17:21;101279.84;;;19.28
53667;BMP280;39568;51.026;5.468;2022-10-17T12:19:50;101291.56;;;19.23
53667;BMP280;39568;51.026;5.468;2022-10-17T12:22:21;101292.28;;;19.24
53667;BMP280;39568;51.026;5.468;2022-10-17T12:24:55;101302.34;;;19.23
53667;BMP280;39568;51.026;5.468;2022-10-17T12:27:38;101287.56;;;19.24
53667;BMP280;39568;51.026;5.468;2022-10-17T12:30:23;101287.88;;;19.13
53667;BMP280;39568;51.026;5.468;2022-10-17T12:33:01;101289.25;;;18.99
53667;BMP280;39568;51.026;5.468;2022-10-17T12:35:29;101291.34;;;18.86
53667;BMP280;39568;51.026;5.468;2022-10-17T12:38:13;101309.78;;;18.74
53667;BMP280;39568;51.026;5.468;2022-10-17T12:40:57;101310.44;;;18.67
53667;BMP280;39568;51.026;5.468;2022-10-17T12:43:51;101309.22;;;18.68
53667;BMP280;39568;51.026;5.468;2022-10-17T12:46:47;101317.66;;;18.65
53667;BMP280;39568;51.026;5.468;2022-10-17T12:54:57;101324.28;;;18.64
53667;BMP280;39568;51.026;5.468;2022-10-17T12:57:34;101323.34;;;18.61
53667;BMP280;39568;51.026;5.468;2022-10-17T13:00:13;101328.75;;;18.61
53667;BMP280;39568;51.026;5.468;2022-10-17T13:02:40;101332.81;;;18.55
53667;BMP280;39568;51.026;5.468;2022-10-17T13:05:14;101341.06;;;18.49
53667;BMP280;39568;51.026;5.468;2022-10-17T13:07:43;101330.34;;;18.57
53667;BMP280;39568;51.026;5.468;2022-10-17T13:10:21;101329.63;;;18.56
53667;BMP280;39568;51.026;5.468;2022-10-17T13:12:50;101334.13;;;18.61
53667;BMP280;39568;51.026;5.468;2022-10-17T13:15:18;101341.13;;;18.57
53667;BMP280;39568;51.026;5.468;2022-10-17T13:17:55;101349.53;;;18.53
53667;BMP280;39568;51.026;5.468;2022-10-17T13:20:24;101337.44;;;18.46
53667;BMP280;39568;51.026;5.468;2022-10-17T13:22:52;101355.19;;;18.42
53667;BMP280;39568;51.026;5.468;2022-10-17T13:25:24;101357.50;;;18.38
53667;BMP280;39568;51.026;5.468;2022-10-17T13:28:06;101356.16;;;18.31
53667;BMP280;39568;51.026;5.468;2022-10-17T13:30:36;101356.69;;;18.30
53667;BMP280;39568;51.026;5.468;2022-10-17T13:33:20;101356.09;;;18.24
53667;BMP280;39568;51.026;5.468;2022-10-17T13:35:53;101357.38;;;18.23
53667;BMP280;39568;51.026;5.468;2022-10-17T13:38:25;101362.91;;;18.25
53667;BMP280;39568;51.026;5.468;2022-10-17T13:40:53;101355.91;;;18.22
53667;BMP280;39568;51.026;5.468;2022-10-17T13:43:21;101376.00;;;18.21
53667;BMP280;39568;51.026;5.468;2022-10-17T13:45:53;101381.91;;;18.19
53667;BMP280;39568;51.026;5.468;2022-10-17T13:48:26;101380.81;;;18.15
53667;BMP280;39568;51.026;5.468;2022-10-17T13:50:56;101392.41;;;18.10
53667;BMP280;39568;51.026;5.468;2022-10-17T13:53:26;101398.84;;;18.07
53667;BMP280;39568;51.026;5.468;2022-10-17T13:56:01;101404.97;;;18.07
53667;BMP280;39568;51.026;5.468;2022-10-17T13:58:38;101401.53;;;18.07
53667;BMP280;39568;51.026;5.468;2022-10-17T14:01:07;101412.09;;;18.05
53667;BMP280;39568;51.026;5.468;2022-10-17T14:03:34;101421.22;;;18.02
53667;BMP280;39568;51.026;5.468;2022-10-17T14:06:12;101420.19;;;18.05
53667;BMP280;39568;51.026;5.468;2022-10-17T14:08:48;101426.19;;;18.11
53667;BMP280;39568;51.026;5.468;2022-10-17T14:11:22;101425.97;;;18.09
53667;BMP280;39568;51.026;5.468;2022-10-17T14:13:52;101432.19;;;18.04
53667;BMP280;39568;51.026;5.468;2022-10-17T14:16:20;101439.03;;;18.05
53667;BMP280;39568;51.026;5.468;2022-10-17T14:18:49;101443.81;;;17.99
53667;BMP280;39568;51.026;5.468;2022-10-17T14:21:18;101433.88;;;17.94
53667;BMP280;39568;51.026;5.468;2022-10-17T14:23:46;101428.50;;;17.94
53667;BMP280;39568;51.026;5.468;2022-10-17T14:26:15;101416.59;;;17.89
53667;BMP280;39568;51.026;5.468;2022-10-17T14:28:48;101414.63;;;17.90